Hoquiam, WA

2:33 PM PST on February 08, 2016 (GMT -0800)
Bowerman | | Change Station
CLOSE
Current Station
Airport
Location: Hoquiam,
Elevation: 13 ft
Nearby Weather Stations

Elev 13 ft 46.97 °N, 123.93 °W | Updated 40 minutes ago

Clear
Clear
60 °F
Feels Like 60 °F
N
16
Wind Variable Wind from East

Today
High -- | Low -- °F
--% Chance of Precip.
Yesterday
High -- | Low -- °F
Precip. -- in
Pressure 30.31 in
Visibility 8.0 miles
Clouds Clear
Dew Point 46 °F
Humidity 60%
Rainfall 0.00 in
Snow Depth Not available.
7:31 AM 5:28 PM
New Moon, 0% visible
METAR KHQM 082153Z AUTO 08014KT 8SM CLR 16/08 A3030 RMK AO2 SLP264 T01560078
Pressure 30.31 in
Visibility 8.0 miles
Clouds Clear
Dew Point 46 °F
Humidity 60%
Rainfall 0.00 in
Snow Depth Not available.
7:31 AM 5:28 PM
New Moon, 0% visible
METAR KHQM 082153Z AUTO 08014KT 8SM CLR 16/08 A3030 RMK AO2 SLP264 T01560078

10-Day Weather Forecast

Almanac

Astronomy

Feb. 08, 2016 Rise Set
Actual Time
Civil Twilight
Nautical Twilight
Astronomical Twilight
Moon
Length of Visible Light
Length of Day
Tomorrow will be .
, % of the Moon is Illuminated

Today's Extremes

State Highs State Lows

Community

WunderPhotos

Upload Photos

1,891,518 photos uploaded!

WunderBlog® & News

Nearby

Air Quality

  Air Quality AQ Index Pollutant
Not available.

Snow Depth

Station Depth Elevation

Earthquake Activity

City Distance Mag. Time & Date
Minimum magnitude displayed is 2.5.

Coastal Water Temperatures

Place Temperature

Stations

Nearby Weather Stations

Station Location Temp. Windchill Dew Point Humidity Wind Precip. Elev Updated Type
                   

Watches & Warnings

There are currently no watches in effect.